Time;durP1;ratioP1;P1;durP2;ratioP2;P2;SDS_P1;SDS_P2;PMS_P1;PMS_P2;Temp;Humidity;BMP_temperature;BMP_pressure;BME280_temperature;BME280_humidity;BME280_pressure;Samples;Min_cycle;Max_cycle;Signal;HPM_P1;HPM_P2
2022/09/16 00:02:18;;;;;;;3.10;1.10;;;;;;;12.01;86.02;100443.44;6280055;28;20315;-81
2022/09/16 00:05:42;;;;;;;2.17;1.03;;;;;;;11.97;85.60;100442.03;6289273;28;20226;-81
2022/09/16 00:09:03;;;;;;;1.37;0.60;;;;;;;11.85;85.99;100440.56;6278520;28;21174;-82
2022/09/16 00:12:24;;;;;;;1.03;0.67;;;;;;;11.73;87.58;100444.50;6289544;28;20490;-83
2022/09/16 00:15:49;;;;;;;0.70;0.60;;;;;;;11.76;87.53;100444.22;6290940;28;20264;-82
2022/09/16 00:19:11;;;;;;;1.07;0.87;;;;;;;11.65;87.16;100442.56;6289751;28;20604;-79
2022/09/16 00:22:32;;;;;;;1.90;1.30;;;;;;;11.83;86.67;100450.66;6291074;28;20367;-82
2022/09/16 00:25:54;;;;;;;1.20;0.83;;;;;;;11.82;86.71;100444.44;6291746;28;20230;-81
2022/09/16 00:29:15;;;;;;;0.83;0.80;;;;;;;11.86;86.43;100442.28;6275571;28;20242;-81
2022/09/16 00:32:38;;;;;;;1.67;1.23;;;;;;;11.75;87.20;100446.06;6287124;28;20218;-83
2022/09/16 00:36:11;;;;;;;2.47;1.93;;;;;;;11.77;86.93;100443.19;6289892;28;20226;-83
2022/09/16 00:39:32;;;;;;;3.37;0.90;;;;;;;11.73;87.35;100448.06;6253761;28;20222;-80
2022/09/16 00:42:53;;;;;;;1.80;1.20;;;;;;;11.98;86.77;100458.09;6291172;28;20933;-79
2022/09/16 00:46:15;;;;;;;0.80;0.80;;;;;;;12.11;85.59;100467.63;6294712;28;20219;-80
2022/09/16 00:49:38;;;;;;;0.83;0.57;;;;;;;11.99;86.77;100475.16;6268514;28;20267;-78
2022/09/16 00:53:00;;;;;;;3.87;0.80;;;;;;;11.94;87.76;100458.53;6285375;28;21699;-80
2022/09/16 00:56:22;;;;;;;1.53;1.43;;;;;;;11.72;88.53;100453.63;6273164;28;20218;-79
2022/09/16 00:59:48;;;;;;;1.10;1.00;;;;;;;11.79;87.75;100469.03;6283517;28;20230;-79
2022/09/16 01:03:09;;;;;;;0.50;0.50;;;;;;;11.66;88.30;100456.91;6289296;28;20222;-78
2022/09/16 01:06:35;;;;;;;0.73;0.60;;;;;;;11.68;88.96;100452.22;6286997;28;20226;-80
2022/09/16 01:09:56;;;;;;;0.70;0.70;;;;;;;11.80;88.23;100462.66;6286208;28;20337;-80
2022/09/16 01:13:18;;;;;;;2.77;0.83;;;;;;;11.87;87.36;100460.16;6284874;28;20233;-80
2022/09/16 01:16:44;;;;;;;1.33;0.80;;;;;;;11.93;86.81;100467.66;6286649;28;20682;-80
2022/09/16 01:20:38;;;;;;;1.47;0.60;;;;;;;11.95;86.50;100466.47;6283676;28;20662;-78
2022/09/16 01:24:18;;;;;;;1.90;0.80;;;;;;;11.91;86.96;100461.56;6260045;28;20239;-80
2022/09/16 01:28:05;;;;;;;0.70;0.60;;;;;;;11.74;88.27;100463.28;6278519;28;20618;-79
2022/09/16 01:31:37;;;;;;;0.80;0.70;;;;;;;11.76;87.45;100463.97;6286086;28;20820;-80
2022/09/16 01:35:08;;;;;;;0.57;0.43;;;;;;;11.52;89.30;100454.72;6286095;28;20225;-80
2022/09/16 01:38:47;;;;;;;1.17;0.50;;;;;;;11.55;89.08;100454.41;6291034;28;20242;-80
2022/09/16 01:42:22;;;;;;;2.40;0.70;;;;;;;11.49;88.76;100455.03;6289997;28;20230;-80
2022/09/16 01:45:52;;;;;;;0.53;0.53;;;;;;;11.56;88.17;100461.50;6291676;28;20218;-82
2022/09/16 01:49:24;;;;;;;2.27;1.00;;;;;;;11.68;87.63;100463.84;6286400;28;20245;-82
2022/09/16 01:52:57;;;;;;;6.43;1.80;;;;;;;11.73;87.32;100455.31;6285082;28;20222;-82
2022/09/16 01:56:22;;;;;;;0.70;0.70;;;;;;;11.65;87.49;100458.75;6258472;28;20222;-82
2022/09/16 01:59:47;;;;;;;6.07;1.00;;;;;;;11.54;88.57;100441.91;6284403;28;20243;-82
2022/09/16 02:03:13;;;;;;;2.23;2.07;;;;;;;11.37;88.65;100443.59;6270210;28;20235;-80
2022/09/16 02:06:39;;;;;;;0.80;0.80;;;;;;;11.37;88.89;100437.38;6287323;28;20230;-82
2022/09/16 02:10:08;;;;;;;3.10;1.30;;;;;;;11.35;89.49;100436.66;6292939;28;20226;-81
2022/09/16 02:13:34;;;;;;;1.50;1.00;;;;;;;11.32;89.96;100426.16;6277997;28;20226;-81
2022/09/16 02:17:00;;;;;;;1.73;0.90;;;;;;;11.37;89.44;100434.66;6292252;28;20230;-81
2022/09/16 02:20:26;;;;;;;4.73;1.30;;;;;;;11.28;89.42;100437.25;6289197;28;20530;-79
2022/09/16 02:23:53;;;;;;;0.70;0.70;;;;;;;11.43;88.95;100428.66;6292056;28;20257;-80
2022/09/16 02:27:18;;;;;;;2.53;1.20;;;;;;;11.43;89.41;100436.75;6284913;28;20229;-81
2022/09/16 02:30:42;;;;;;;1.10;0.80;;;;;;;11.42;88.52;100430.50;6292521;28;20226;-81
2022/09/16 02:34:09;;;;;;;0.60;0.60;;;;;;;11.24;89.93;100425.06;6289635;28;20246;-81
2022/09/16 02:37:36;;;;;;;1.50;0.90;;;;;;;11.27;89.63;100422.06;6282611;28;20939;-81
2022/09/16 02:41:01;;;;;;;2.03;1.20;;;;;;;11.32;89.36;100439.66;6267927;28;20238;-80
2022/09/16 02:44:28;;;;;;;0.57;0.57;;;;;;;11.39;89.01;100455.06;6285488;28;20234;-80
2022/09/16 02:47:58;;;;;;;3.00;0.83;;;;;;;11.41;89.01;100441.44;6288537;28;20226;-81
2022/09/16 02:51:31;;;;;;;2.87;2.07;;;;;;;11.21;90.34;100411.88;6282002;28;20234;-80
2022/09/16 02:54:58;;;;;;;2.60;1.00;;;;;;;11.17;90.80;100415.88;6280418;28;20313;-80
2022/09/16 02:58:21;;;;;;;2.97;0.80;;;;;;;11.08;90.92;100416.78;6273748;28;20231;-80
2022/09/16 03:01:44;;;;;;;2.43;0.70;;;;;;;11.21;89.99;100421.81;6288572;28;20222;-81
2022/09/16 03:05:06;;;;;;;3.80;0.97;;;;;;;11.08;90.29;100427.56;6291938;28;20502;-82
2022/09/16 03:08:27;;;;;;;3.73;2.70;;;;;;;11.03;90.54;100419.09;6286320;28;20838;-82
2022/09/16 03:12:07;;;;;;;0.83;0.60;;;;;;;11.07;90.60;100415.09;6279888;28;20255;-82
2022/09/16 03:15:39;;;;;;;1.80;0.87;;;;;;;11.10;91.06;100422.88;6290004;28;20234;-81
2022/09/16 03:19:12;;;;;;;1.17;0.73;;;;;;;11.24;89.87;100406.16;6288112;28;20226;-81
2022/09/16 03:22:47;;;;;;;1.20;1.10;;;;;;;11.10;90.10;100404.00;6288304;28;20226;-82
2022/09/16 03:26:16;;;;;;;1.57;0.70;;;;;;;11.13;90.55;100406.41;6289628;28;20234;-82
2022/09/16 03:29:41;;;;;;;0.97;0.93;;;;;;;11.04;90.44;100409.13;6285345;28;20313;-82
2022/09/16 03:33:10;;;;;;;2.67;1.00;;;;;;;11.01;90.97;100402.19;6289492;28;20802;-81
2022/09/16 03:36:34;;;;;;;2.90;0.93;;;;;;;10.95;90.45;100407.38;6286209;28;20234;-82
2022/09/16 03:39:59;;;;;;;1.97;0.90;;;;;;;10.97;90.82;100400.78;6293849;28;20250;-80
2022/09/16 03:43:20;;;;;;;1.13;0.70;;;;;;;11.03;90.63;100400.22;6289719;28;20627;-81
2022/09/16 03:46:41;;;;;;;0.90;0.90;;;;;;;11.00;90.19;100396.97;6288635;28;20523;-83
2022/09/16 03:50:03;;;;;;;1.33;0.80;;;;;;;10.94;89.58;100393.03;6302592;28;20222;-81
2022/09/16 03:53:24;;;;;;;1.93;1.00;;;;;;;11.06;89.33;100393.66;6288034;28;20222;-82
2022/09/16 03:56:45;;;;;;;1.37;0.73;;;;;;;10.96;90.05;100398.25;6282301;28;20279;-81
2022/09/16 04:00:08;;;;;;;1.00;1.00;;;;;;;10.98;89.75;100399.81;6272404;28;20235;-81
2022/09/16 04:03:36;;;;;;;4.57;0.87;;;;;;;11.10;89.26;100404.00;6278008;28;20222;-81
2022/09/16 04:06:58;;;;;;;2.83;1.60;;;;;;;11.00;89.88;100399.66;6285865;28;20550;-82
2022/09/16 04:10:19;;;;;;;1.27;1.03;;;;;;;11.08;89.97;100403.31;6283745;28;20961;-80
2022/09/16 04:13:41;;;;;;;1.20;1.10;;;;;;;11.14;90.28;100397.28;6271218;28;20222;-80
2022/09/16 04:17:02;;;;;;;1.30;0.70;;;;;;;11.17;90.15;100394.31;6287493;28;20218;-80
2022/09/16 04:20:23;;;;;;;2.07;1.07;;;;;;;11.10;89.77;100397.75;6280029;28;20517;-79
2022/09/16 04:23:46;;;;;;;1.37;0.80;;;;;;;10.97;90.08;100386.50;6279438;28;20231;-78
2022/09/16 04:27:07;;;;;;;2.80;0.97;;;;;;;11.00;90.10;100386.16;6269141;28;20231;-80
2022/09/16 04:30:28;;;;;;;0.90;0.90;;;;;;;11.00;89.11;100380.78;6289785;28;20226;-81
2022/09/16 04:33:49;;;;;;;8.80;1.40;;;;;;;11.00;90.20;100381.63;6287213;28;20672;-82
2022/09/16 04:37:10;;;;;;;1.37;1.00;;;;;;;10.90;90.10;100375.44;6290390;28;20515;-81
2022/09/16 04:40:33;;;;;;;1.07;0.80;;;;;;;10.87;90.16;100374.88;6288008;28;20614;-83
2022/09/16 04:43:55;;;;;;;2.37;0.80;;;;;;;10.88;89.56;100372.06;6284740;28;20552;-79
2022/09/16 04:47:16;;;;;;;1.03;0.90;;;;;;;10.93;89.68;100366.22;6264823;28;20500;-82
2022/09/16 04:50:37;;;;;;;1.20;0.70;;;;;;;10.95;89.34;100366.91;6276641;28;20238;-82
2022/09/16 04:54:00;;;;;;;1.13;0.90;;;;;;;11.01;88.57;100371.69;6266941;28;22251;-82
2022/09/16 04:57:23;;;;;;;1.50;0.83;;;;;;;10.99;88.76;100371.81;6286732;28;20235;-81
2022/09/16 05:00:43;;;;;;;1.50;1.40;;;;;;;11.00;89.34;100378.94;6286000;28;20222;-79
2022/09/16 05:04:06;;;;;;;1.20;0.97;;;;;;;11.05;88.29;100392.81;6281719;28;20227;-80
2022/09/16 05:07:28;;;;;;;2.00;0.97;;;;;;;11.18;88.76;100389.78;6275714;28;20226;-81
2022/09/16 05:10:49;;;;;;;2.40;0.90;;;;;;;11.23;87.50;100390.13;6285459;28;20238;-82
2022/09/16 05:14:14;;;;;;;1.60;0.90;;;;;;;11.07;88.37;100388.13;6279414;28;20544;-82
2022/09/16 05:17:35;;;;;;;0.70;0.63;;;;;;;11.18;88.19;100387.91;6266925;28;20227;-82
2022/09/16 05:20:58;;;;;;;1.13;0.90;;;;;;;11.18;88.19;100382.50;6276399;28;20234;-83
2022/09/16 05:24:19;;;;;;;0.77;0.77;;;;;;;11.15;88.15;100388.22;6286008;28;20235;-80
2022/09/16 05:27:40;;;;;;;1.50;0.80;;;;;;;10.99;88.87;100376.41;6279134;28;20321;-81
2022/09/16 05:31:10;;;;;;;1.80;1.70;;;;;;;10.89;89.31;100372.91;6273635;28;20315;-79
2022/09/16 05:34:31;;;;;;;1.17;1.07;;;;;;;10.86;88.84;100373.19;6278131;28;20242;-78
2022/09/16 05:37:52;;;;;;;1.67;1.03;;;;;;;10.95;89.14;100375.81;6285027;28;20230;-79
2022/09/16 05:41:13;;;;;;;2.10;0.83;;;;;;;11.11;87.80;100367.09;6274183;28;20317;-81
2022/09/16 05:44:35;;;;;;;1.97;1.10;;;;;;;11.13;88.20;100370.47;6277036;28;20652;-75
2022/09/16 05:47:57;;;;;;;1.53;1.00;;;;;;;11.20;87.67;100385.88;6286022;28;20226;-76
2022/09/16 05:51:23;;;;;;;2.10;1.07;;;;;;;11.10;88.62;100382.41;6259975;28;20226;-85
2022/09/16 05:54:46;;;;;;;1.10;1.00;;;;;;;11.10;87.39;100385.13;6272942;28;20326;-86
2022/09/16 05:58:07;;;;;;;0.90;0.90;;;;;;;11.20;87.42;100387.75;6269012;28;20220;-85
2022/09/16 06:01:30;;;;;;;2.23;0.90;;;;;;;11.24;87.27;100378.38;6289692;28;20234;-82
2022/09/16 06:04:53;;;;;;;1.33;0.83;;;;;;;11.39;87.11;100375.97;6266611;28;20234;-76
2022/09/16 06:08:14;;;;;;;3.10;1.13;;;;;;;11.37;87.31;100376.13;6277574;28;20263;-75
2022/09/16 06:11:37;;;;;;;0.83;0.80;;;;;;;11.34;87.40;100372.88;6276949;28;20767;-75
2022/09/16 06:14:59;;;;;;;2.10;0.97;;;;;;;11.40;87.24;100367.72;6276463;28;21249;-75
2022/09/16 06:18:20;;;;;;;0.97;0.87;;;;;;;11.43;87.31;100370.09;6271282;28;20250;-75
2022/09/16 06:21:43;;;;;;;1.90;0.97;;;;;;;11.45;87.13;100375.38;6279433;28;20254;-73
2022/09/16 06:25:05;;;;;;;0.70;0.70;;;;;;;11.53;85.54;100367.34;6283283;28;20325;-76
2022/09/16 06:28:26;;;;;;;6.93;0.97;;;;;;;11.53;85.94;100372.75;6280299;28;20554;-78
2022/09/16 06:31:47;;;;;;;2.40;1.00;;;;;;;11.54;86.60;100366.31;6291142;28;20238;-81
2022/09/16 06:35:08;;;;;;;2.30;1.07;;;;;;;11.65;85.41;100358.00;6277570;28;20308;-77
2022/09/16 06:38:31;;;;;;;4.90;1.13;;;;;;;11.64;85.41;100351.72;6277019;28;20325;-77
2022/09/16 06:41:52;;;;;;;0.70;0.70;;;;;;;11.60;85.26;100341.44;6290210;28;20234;-80
2022/09/16 06:45:18;;;;;;;3.33;1.00;;;;;;;11.60;85.35;100352.22;6276783;28;20585;-78
2022/09/16 06:48:41;;;;;;;1.03;1.00;;;;;;;11.86;83.78;100348.59;6283187;28;20254;-79
2022/09/16 06:52:02;;;;;;;2.20;0.77;;;;;;;11.91;83.13;100343.53;6284929;28;20255;-84
2022/09/16 06:55:24;;;;;;;1.80;1.30;;;;;;;11.91;83.61;100348.13;6286729;28;20242;-78
2022/09/16 06:58:47;;;;;;;0.70;0.70;;;;;;;11.94;82.92;100337.84;6286151;28;20219;-78
2022/09/16 07:02:10;;;;;;;2.00;0.80;;;;;;;12.08;81.62;100330.19;6280867;28;20234;-84
2022/09/16 07:05:31;;;;;;;0.63;0.57;;;;;;;12.12;81.28;100342.34;6284171;28;20238;-74
2022/09/16 07:08:54;;;;;;;0.60;0.60;;;;;;;12.15;81.37;100339.31;6285182;28;20226;-79
2022/09/16 07:12:16;;;;;;;3.63;1.27;;;;;;;12.22;79.90;100353.91;6287477;28;20293;-75
2022/09/16 07:15:38;;;;;;;1.53;0.70;;;;;;;12.23;81.23;100339.38;6280708;28;20241;-75
2022/09/16 07:18:59;;;;;;;2.23;0.70;;;;;;;12.34;79.58;100345.38;6277667;28;20943;-76
2022/09/16 07:22:20;;;;;;;3.17;0.60;;;;;;;12.23;79.18;100336.66;6263432;28;20616;-74
2022/09/16 07:25:40;;;;;;;2.77;1.00;;;;;;;12.26;79.48;100349.88;6268875;28;20227;-76
2022/09/16 07:29:05;;;;;;;1.47;0.57;;;;;;;12.53;78.13;100341.56;6280767;28;20230;-79
2022/09/16 07:32:26;;;;;;;4.47;0.73;;;;;;;12.56;76.85;100342.09;6283717;28;20223;-78
2022/09/16 07:35:47;;;;;;;1.30;0.77;;;;;;;12.61;77.75;100344.31;6281828;28;20219;-75
2022/09/16 07:39:08;;;;;;;0.53;0.53;;;;;;;12.74;77.17;100344.72;6280678;28;20599;-83
2022/09/16 07:42:30;;;;;;;11.40;2.27;;;;;;;12.90;77.47;100347.47;6284256;28;20223;-76
2022/09/16 07:45:57;;;;;;;3.10;1.83;;;;;;;13.16;76.69;100347.41;6284896;28;20603;-80
2022/09/16 07:49:21;;;;;;;1.00;0.70;;;;;;;13.34;76.17;100337.28;6295732;28;20234;-75
2022/09/16 07:52:42;;;;;;;0.63;0.50;;;;;;;13.00;76.09;100336.50;6288180;28;20247;-78
2022/09/16 07:56:05;;;;;;;2.30;0.83;;;;;;;13.02;76.52;100345.28;6288369;28;20238;-75
2022/09/16 07:59:26;;;;;;;2.17;0.90;;;;;;;13.24;75.25;100350.13;6275731;28;20258;-78
2022/09/16 08:02:48;;;;;;;2.87;1.67;;;;;;;13.39;74.97;100345.78;6283543;28;20226;-76
2022/09/16 08:06:12;;;;;;;1.00;1.00;;;;;;;13.82;73.81;100359.00;6284984;28;22155;-73
2022/09/16 08:09:33;;;;;;;1.20;0.60;;;;;;;13.90;71.59;100352.72;6281894;28;20536;-77
2022/09/16 08:12:54;;;;;;;3.43;0.77;;;;;;;13.75;72.16;100327.34;6279218;28;20222;-79
2022/09/16 08:16:16;;;;;;;2.57;1.10;;;;;;;13.69;73.21;100345.09;6281439;28;22098;-78
2022/09/16 08:19:40;;;;;;;1.70;0.73;;;;;;;13.69;73.01;100349.66;6279222;28;20230;-75
2022/09/16 08:23:02;;;;;;;1.33;1.23;;;;;;;13.80;71.65;100343.91;6273393;28;20258;-75
2022/09/16 08:26:24;;;;;;;5.40;1.80;;;;;;;13.71;71.23;100344.91;6278549;28;20227;-75
2022/09/16 08:29:45;;;;;;;2.33;0.90;;;;;;;13.71;71.70;100344.91;6288889;28;20218;-74
2022/09/16 08:33:06;;;;;;;1.33;0.63;;;;;;;13.82;71.52;100345.44;6282271;28;20686;-77
2022/09/16 08:36:29;;;;;;;0.77;0.77;;;;;;;14.01;71.60;100345.09;6280859;28;20234;-74
2022/09/16 08:39:50;;;;;;;1.93;1.07;;;;;;;13.77;72.15;100352.41;6289243;28;20822;-73
2022/09/16 08:43:16;;;;;;;0.53;0.53;;;;;;;14.01;72.45;100352.38;6289693;28;20329;-73
2022/09/16 08:46:48;;;;;;;1.27;0.80;;;;;;;14.33;70.52;100353.19;6239339;28;20223;-73
2022/09/16 08:50:15;;;;;;;3.90;1.07;;;;;;;14.28;70.33;100360.13;6260024;28;20230;-76
2022/09/16 08:53:41;;;;;;;0.70;0.70;;;;;;;14.63;69.28;100359.72;6281887;28;20309;-74
2022/09/16 08:57:05;;;;;;;2.53;0.90;;;;;;;14.46;69.32;100355.34;6282666;28;20226;-75
2022/09/16 09:00:26;;;;;;;1.40;0.97;;;;;;;14.94;68.87;100363.31;6294292;28;20246;-75
2022/09/16 09:03:48;;;;;;;4.37;2.23;;;;;;;14.74;68.71;100350.34;6283594;28;20230;-74
2022/09/16 09:07:17;;;;;;;0.80;0.80;;;;;;;14.80;68.30;100344.22;6284506;28;20231;-76
2022/09/16 09:10:49;;;;;;;1.67;0.70;;;;;;;14.83;68.78;100352.03;6283875;28;20680;-77
2022/09/16 09:14:23;;;;;;;1.47;0.90;;;;;;;14.64;68.88;100355.16;6255118;28;20226;-77
2022/09/16 09:18:03;;;;;;;1.00;0.90;;;;;;;14.70;68.45;100362.59;6278990;28;20218;-75
2022/09/16 09:21:30;;;;;;;2.13;0.90;;;;;;;14.81;67.88;100348.66;6289771;28;20796;-76
2022/09/16 09:25:05;;;;;;;1.10;0.90;;;;;;;15.00;67.64;100356.34;6290986;28;20227;-83
2022/09/16 09:28:59;;;;;;;6.17;0.90;;;;;;;14.33;69.56;100355.91;6282525;28;21090;-76
2022/09/16 09:32:28;;;;;;;0.83;0.83;;;;;;;14.18;72.38;100354.06;6293146;28;20230;-79
2022/09/16 09:36:04;;;;;;;2.50;1.33;;;;;;;14.29;72.96;100349.13;6270422;28;20229;-78
2022/09/16 09:39:39;;;;;;;3.23;1.83;;;;;;;13.67;75.44;100338.16;6296379;28;20230;-86
2022/09/16 09:43:09;;;;;;;2.03;0.97;;;;;;;13.38;77.64;100354.88;6300792;28;21145;-77
2022/09/16 09:46:38;;;;;;;1.70;1.47;;;;;;;13.51;76.26;100341.72;6299220;28;20221;-82
2022/09/16 09:50:12;;;;;;;2.20;0.93;;;;;;;14.24;73.40;100318.13;6284980;28;20245;-78
2022/09/16 09:53:36;;;;;;;1.70;0.73;;;;;;;14.52;71.56;100319.41;6294795;28;20317;-77
2022/09/16 09:57:02;;;;;;;4.83;1.20;;;;;;;14.92;68.63;100315.66;6273800;28;20230;-80
2022/09/16 10:00:23;;;;;;;2.20;2.00;;;;;;;15.05;66.36;100315.94;6279652;28;20227;-79
2022/09/16 10:03:48;;;;;;;2.93;0.80;;;;;;;15.25;64.51;100309.00;6290052;28;20560;-83
2022/09/16 10:07:10;;;;;;;1.07;0.70;;;;;;;15.17;64.55;100312.63;6261359;28;20235;-78
2022/09/16 10:10:34;;;;;;;1.77;0.73;;;;;;;15.14;64.80;100318.41;6272408;28;20852;-81
2022/09/16 10:13:58;;;;;;;4.33;0.60;;;;;;;15.35;64.39;100317.78;6282830;28;20226;-75
2022/09/16 10:17:19;;;;;;;0.73;0.73;;;;;;;15.89;63.70;100311.25;6296619;28;20238;-79
2022/09/16 10:20:44;;;;;;;5.27;1.23;;;;;;;15.81;63.51;100314.03;6297126;28;20238;-81
2022/09/16 10:24:05;;;;;;;1.47;1.00;;;;;;;16.05;62.35;100298.50;6278807;28;20230;-84
2022/09/16 10:27:28;;;;;;;4.00;1.70;;;;;;;16.55;61.33;100291.34;6288461;28;20230;-80
2022/09/16 10:30:51;;;;;;;3.00;1.03;;;;;;;16.54;60.11;100302.44;6295742;28;20238;-79
2022/09/16 10:34:18;;;;;;;2.47;1.10;;;;;;;16.85;60.01;100292.16;6298051;28;20286;-79
2022/09/16 10:37:50;;;;;;;3.60;1.47;;;;;;;16.41;58.77;100299.50;6275890;28;20234;-77
2022/09/16 10:41:16;;;;;;;4.73;2.00;;;;;;;16.71;56.81;100288.41;6279750;28;20230;-78
2022/09/16 10:44:38;;;;;;;4.63;0.80;;;;;;;17.07;56.15;100283.00;6286427;28;20251;-77
2022/09/16 10:48:04;;;;;;;2.47;1.10;;;;;;;18.07;52.05;100283.72;6288015;28;20226;-77
2022/09/16 10:51:28;;;;;;;1.33;1.23;;;;;;;19.23;48.49;100267.31;6285443;28;20226;-79
2022/09/16 10:54:51;;;;;;;6.28;1.83;;;;;;;20.54;45.95;100263.53;6295635;28;20235;-74
2022/09/16 10:58:16;;;;;;;1.50;1.15;;;;;;;23.82;38.27;100280.50;6297933;28;20305;-74
2022/09/16 11:01:44;;;;;;;4.13;1.15;;;;;;;22.92;38.69;100240.34;6279955;28;20272;-76
2022/09/16 11:05:12;;;;;;;4.25;0.93;;;;;;;25.74;34.94;100233.13;6293756;28;20233;-76
2022/09/16 11:08:51;;;;;;;2.05;0.47;;;;;;;23.11;39.59;100241.13;6297699;28;20214;-77
2022/09/16 11:12:34;;;;;;;2.38;0.50;;;;;;;21.46;42.61;100244.72;6289316;28;21169;-75
2022/09/16 11:16:09;;;;;;;1.20;1.08;;;;;;;19.83;45.86;100248.03;6288986;28;20222;-74
2022/09/16 11:19:38;;;;;;;1.08;0.82;;;;;;;16.74;54.31;100298.09;6285085;28;20229;-79
2022/09/16 11:23:07;;;;;;;2.13;0.52;;;;;;;15.72;61.44;100303.44;6274462;28;20280;-81
2022/09/16 11:26:35;;;;;;;0.73;0.52;;;;;;;15.12;64.41;100303.34;6294731;28;21044;-78
2022/09/16 11:30:09;;;;;;;1.42;0.63;;;;;;;14.62;66.06;100303.78;6297294;28;25595;-84
2022/09/16 11:33:40;;;;;;;1.97;1.10;;;;;;;15.49;64.01;100284.44;6280579;28;20571;-81
2022/09/16 11:37:12;;;;;;;0.40;0.40;;;;;;;18.19;56.27;100269.34;6278566;28;20241;-78
2022/09/16 11:40:46;;;;;;;1.20;1.20;;;;;;;20.34;49.13;100262.72;6287536;28;20222;-78
2022/09/16 11:44:23;;;;;;;1.75;0.85;;;;;;;19.91;49.48;100258.78;6264564;28;20234;-78
2022/09/16 11:48:12;;;;;;;2.03;1.17;;;;;;;17.93;54.10;100265.59;6282671;28;20222;-78
2022/09/16 11:51:46;;;;;;;0.77;0.52;;;;;;;18.10;54.68;100265.09;6286774;28;20627;-76
2022/09/16 11:55:20;;;;;;;2.65;0.75;;;;;;;21.80;46.42;100237.91;6284570;28;20226;-77
2022/09/16 11:58:47;;;;;;;1.08;0.98;;;;;;;21.69;43.72;100226.84;6274137;28;20222;-83
2022/09/16 12:02:19;;;;;;;2.20;1.27;;;;;;;22.99;40.81;100232.81;6288120;28;20234;-79
2022/09/16 12:05:48;;;;;;;2.47;0.80;;;;;;;23.23;40.39;100215.34;6285803;28;20238;-78
2022/09/16 12:09:16;;;;;;;2.55;0.85;;;;;;;22.23;41.36;100210.50;6282523;28;20230;-80
2022/09/16 12:12:43;;;;;;;3.83;1.30;;;;;;;19.81;46.34;100206.38;6279178;28;20230;-76
2022/09/16 12:16:08;;;;;;;3.10;1.52;;;;;;;23.26;40.12;100195.59;6284973;28;20250;-77
2022/09/16 12:19:32;;;;;;;4.85;2.00;;;;;;;25.59;35.82;100186.75;6286332;28;20239;-76
2022/09/16 12:23:01;;;;;;;2.85;0.85;;;;;;;19.17;48.49;100205.28;6281196;28;20539;-77
2022/09/16 12:26:27;;;;;;;1.15;0.77;;;;;;;17.08;55.31;100260.19;6276386;28;20222;-76
2022/09/16 12:30:00;;;;;;;3.13;2.13;;;;;;;15.88;64.66;100244.31;6265306;28;20258;-76
2022/09/16 12:33:27;;;;;;;1.67;0.85;;;;;;;15.30;70.99;100235.16;6274787;28;20234;-73
2022/09/16 12:36:57;;;;;;;4.60;0.85;;;;;;;15.52;71.55;100223.47;6284143;28;20226;-74
2022/09/16 12:40:23;;;;;;;3.28;0.93;;;;;;;18.41;62.31;100201.03;6273701;28;20238;-74
2022/09/16 12:44:09;;;;;;;1.25;1.15;;;;;;;24.14;44.14;100179.09;6280996;28;20522;-75
2022/09/16 12:47:58;;;;;;;1.90;1.23;;;;;;;24.23;43.54;100191.44;6285673;28;20554;-76
2022/09/16 12:51:59;;;;;;;0.82;0.77;;;;;;;23.05;44.99;100176.91;6291384;28;20230;-76
2022/09/16 12:55:46;;;;;;;1.30;0.52;;;;;;;18.14;57.27;100180.94;6285835;28;20227;-75
2022/09/16 12:59:51;;;;;;;1.85;1.10;;;;;;;16.47;63.54;100206.22;6268085;28;20616;-81
2022/09/16 13:03:16;;;;;;;0.77;0.60;;;;;;;16.16;65.22;100221.91;6272364;28;20238;-79
2022/09/16 13:06:44;;;;;;;1.05;0.70;;;;;;;17.15;62.29;100206.59;6295099;28;20227;-79
2022/09/16 13:10:09;;;;;;;0.68;0.57;;;;;;;19.00;54.77;100191.19;6290035;28;20643;-80
2022/09/16 13:13:38;;;;;;;0.40;0.40;;;;;;;20.83;49.59;100182.69;6281272;28;20230;-78
2022/09/16 13:17:01;;;;;;;0.77;0.60;;;;;;;18.22;54.66;100200.72;6286153;28;20517;-82
2022/09/16 13:20:28;;;;;;;1.98;0.82;;;;;;;16.49;60.52;100196.00;6281636;28;20635;-77
2022/09/16 13:24:00;;;;;;;6.00;0.70;;;;;;;15.75;64.95;100206.03;6271039;28;20333;-77
2022/09/16 13:27:33;;;;;;;0.80;0.57;;;;;;;14.93;68.56;100203.38;6283506;28;20233;-78
2022/09/16 13:30:56;;;;;;;1.53;0.70;;;;;;;14.31;72.24;100214.22;6276678;28;21820;-79
2022/09/16 13:34:19;;;;;;;1.00;0.90;;;;;;;14.10;72.61;100192.25;6266396;28;20305;-78
2022/09/16 13:37:41;;;;;;;3.00;1.73;;;;;;;14.31;73.15;100208.81;6275366;28;20227;-77
2022/09/16 13:41:02;;;;;;;2.37;0.70;;;;;;;14.20;73.47;100192.91;6262202;28;20227;-78
2022/09/16 13:44:40;;;;;;;4.90;1.03;;;;;;;14.02;74.81;100192.28;6284735;28;20215;-80
2022/09/16 13:48:12;;;;;;;1.47;1.30;;;;;;;14.13;74.81;100201.91;6277929;28;21484;-78
2022/09/16 13:51:39;;;;;;;0.83;0.60;;;;;;;13.77;76.27;100201.50;6282804;28;20223;-77
2022/09/16 13:55:02;;;;;;;5.43;0.93;;;;;;;13.62;75.91;100195.13;6282677;28;20668;-80
2022/09/16 13:58:30;;;;;;;1.13;0.60;;;;;;;13.32;77.92;100234.59;6273847;28;20264;-77
2022/09/16 14:02:01;;;;;;;1.13;1.10;;;;;;;13.23;79.09;100191.44;6287289;28;20253;-78
2022/09/16 14:05:48;;;;;;;3.83;1.60;;;;;;;13.10;80.14;100199.22;6270236;28;20253;-78
2022/09/16 14:09:24;;;;;;;1.27;0.87;;;;;;;12.78;80.65;100189.19;6289084;28;20231;-76
2022/09/16 14:12:54;;;;;;;1.27;0.90;;;;;;;12.40;82.40;100184.38;6285287;28;20758;-74
2022/09/16 14:16:18;;;;;;;3.17;0.70;;;;;;;12.39;83.41;100150.25;6263830;28;20247;-75
2022/09/16 14:19:42;;;;;;;0.77;0.70;;;;;;;12.04;83.56;100148.63;6287900;28;20230;-74
2022/09/16 14:23:15;;;;;;;0.83;0.60;;;;;;;12.06;84.30;100156.59;6294314;28;22522;-74
2022/09/16 14:26:36;;;;;;;1.23;0.83;;;;;;;11.93;85.42;100151.63;6285963;28;20623;-75
2022/09/16 14:29:58;;;;;;;2.03;0.90;;;;;;;11.92;84.43;100137.28;6288773;28;20506;-74
2022/09/16 14:33:24;;;;;;;2.37;0.97;;;;;;;11.85;86.13;100121.88;6261787;28;20238;-77
2022/09/16 14:36:46;;;;;;;2.43;0.93;;;;;;;11.89;84.72;100125.97;6280849;28;20234;-74
2022/09/16 14:40:13;;;;;;;2.27;0.90;;;;;;;11.83;86.17;100086.06;6285958;28;20619;-75
2022/09/16 14:43:37;;;;;;;3.43;1.30;;;;;;;11.61;86.22;100081.25;6289822;28;20514;-74
2022/09/16 14:47:02;;;;;;;2.60;0.90;;;;;;;11.71;85.97;100085.53;6293284;28;21589;-76
2022/09/16 14:50:27;;;;;;;1.53;1.43;;;;;;;11.65;87.07;100078.06;6294128;28;20226;-79
2022/09/16 14:53:57;;;;;;;3.73;1.67;;;;;;;11.57;88.81;100069.09;6298773;28;20223;-77
2022/09/16 14:57:22;;;;;;;7.10;2.03;;;;;;;11.41;89.35;100047.44;6293040;28;20226;-78
2022/09/16 15:00:47;;;;;;;0.70;0.70;;;;;;;11.52;89.21;100047.13;6299138;28;20227;-74
2022/09/16 15:04:14;;;;;;;2.10;1.47;;;;;;;11.55;89.17;100046.81;6295023;28;20231;-79
2022/09/16 15:07:39;;;;;;;1.93;0.80;;;;;;;11.79;89.18;100063.09;6297702;28;20223;-77
2022/09/16 15:11:04;;;;;;;1.40;1.30;;;;;;;11.62;89.22;100043.28;6295809;28;20528;-79
2022/09/16 15:14:27;;;;;;;5.93;0.80;;;;;;;11.53;90.82;100036.19;6294873;28;20250;-78
2022/09/16 15:17:53;;;;;;;13.30;2.07;;;;;;;11.56;91.62;100026.88;6292178;28;20238;-79
2022/09/16 15:21:19;;;;;;;2.07;1.37;;;;;;;11.42;92.79;100014.88;6283629;28;20831;-81
2022/09/16 15:24:41;;;;;;;1.37;0.70;;;;;;;11.45;91.50;100027.19;6297256;28;20234;-79
2022/09/16 15:28:06;;;;;;;0.90;0.70;;;;;;;11.47;93.18;100000.91;6292408;28;20318;-75
2022/09/16 15:31:33;;;;;;;1.40;0.90;;;;;;;11.47;92.67;100006.28;6299993;28;20508;-77
2022/09/16 15:35:10;;;;;;;1.37;0.93;;;;;;;11.53;92.84;100011.03;6287879;28;20226;-75
2022/09/16 15:38:31;;;;;;;3.37;0.97;;;;;;;11.62;92.58;99978.50;6286204;28;20231;-82
2022/09/16 15:42:08;;;;;;;3.27;1.50;;;;;;;11.83;93.10;99994.25;6292554;28;20670;-79
2022/09/16 15:45:29;;;;;;;3.23;1.53;;;;;;;11.95;93.06;99991.06;6277104;28;20244;-76
2022/09/16 15:48:55;;;;;;;1.07;0.97;;;;;;;12.10;92.43;100009.34;6300699;28;20218;-75
2022/09/16 15:52:16;;;;;;;1.97;0.80;;;;;;;11.98;92.64;99996.16;6296997;28;20223;-78
2022/09/16 15:55:44;;;;;;;1.30;0.80;;;;;;;12.05;92.74;100007.16;6294734;28;20222;-78
2022/09/16 15:59:19;;;;;;;2.17;0.93;;;;;;;12.05;92.95;100012.53;6286549;28;20247;-73